createdAt,value
2023-08-23T05:01:07.718Z,97757.91
2023-08-23T05:03:38.736Z,97741.03
2023-08-23T05:06:05.847Z,97763.16
2023-08-23T05:08:34.996Z,97747.16
2023-08-23T05:11:05.802Z,97770.22
2023-08-23T05:13:33.503Z,97745.50
2023-08-23T05:16:01.756Z,97760.56
2023-08-23T05:18:28.966Z,97755.19
2023-08-23T05:20:57.334Z,97768.44
2023-08-23T05:23:24.438Z,97756.16
2023-08-23T05:25:53.034Z,97757.78
2023-08-23T05:28:23.311Z,97770.19
2023-08-23T05:30:52.912Z,97766.63
2023-08-23T05:33:23.913Z,97756.00
2023-08-23T05:35:50.652Z,97753.19
2023-08-23T05:38:17.603Z,97750.47
2023-08-23T05:40:47.017Z,97777.22
2023-08-23T05:43:14.261Z,97773.41
2023-08-23T05:45:40.999Z,97773.47
2023-08-23T05:48:07.889Z,97770.91
2023-08-23T05:50:34.661Z,97762.78
2023-08-23T05:53:01.627Z,97775.19
2023-08-23T05:55:28.294Z,97774.25
2023-08-23T05:57:54.941Z,97776.84
2023-08-23T06:00:22.297Z,97776.94
2023-08-23T06:02:49.189Z,97768.00
2023-08-23T06:05:16.008Z,97774.09
2023-08-23T06:07:42.923Z,97772.28
2023-08-23T06:10:10.781Z,97760.72
2023-08-23T06:12:44.868Z,97767.78
2023-08-23T06:15:11.636Z,97787.31
2023-08-23T06:17:38.344Z,97784.59
2023-08-23T06:20:06.072Z,97757.97
2023-08-23T06:22:32.816Z,97785.44
2023-08-23T06:24:59.484Z,97788.00
2023-08-23T06:27:26.119Z,97780.28
2023-08-23T06:29:52.780Z,97764.28
2023-08-23T06:32:20.278Z,97784.38
2023-08-23T06:34:47.007Z,97767.41
2023-08-23T06:37:13.726Z,97783.41
2023-08-23T06:39:40.625Z,97770.91
2023-08-23T06:42:07.580Z,97765.44
2023-08-23T06:44:34.362Z,97787.59
2023-08-23T06:47:01.105Z,97765.34
2023-08-23T06:49:27.763Z,97789.31
2023-08-23T06:51:54.409Z,97785.72
2023-08-23T06:54:21.179Z,97800.72
2023-08-23T06:56:47.995Z,97762.38
2023-08-23T06:59:14.619Z,97801.59
2023-08-23T07:01:41.414Z,97783.81
2023-08-23T07:04:08.151Z,97775.56
2023-08-23T07:06:34.872Z,97772.09
2023-08-23T07:09:01.529Z,97772.94
2023-08-23T07:11:28.250Z,97797.69
2023-08-23T07:13:54.859Z,97792.16
2023-08-23T07:16:21.629Z,97771.66
2023-08-23T07:18:48.355Z,97803.72
2023-08-23T07:21:16.450Z,97797.13
2023-08-23T07:23:43.708Z,97786.53
2023-08-23T07:26:10.596Z,97791.75
2023-08-23T07:28:37.461Z,97813.03
2023-08-23T07:31:04.731Z,97818.41
2023-08-23T07:33:31.486Z,97821.03
2023-08-23T07:35:59.516Z,97816.41
2023-08-23T07:38:26.365Z,97826.09
2023-08-23T07:41:06.962Z,97803.66
2023-08-23T07:43:33.767Z,97793.56
2023-08-23T07:46:01.873Z,97816.53
2023-08-23T07:48:29.075Z,97824.69
2023-08-23T07:50:57.914Z,97827.63
2023-08-23T07:53:24.988Z,97826.69
2023-08-23T07:55:51.779Z,97822.09
2023-08-23T07:58:18.728Z,97834.75
2023-08-23T08:00:45.463Z,97827.22
2023-08-23T08:03:12.401Z,97837.31
2023-08-23T08:05:39.507Z,97830.06
2023-08-23T08:08:09.779Z,97815.63
2023-08-23T08:10:37.737Z,97815.41
2023-08-23T08:13:04.944Z,97833.75
2023-08-23T08:15:32.966Z,97835.81
2023-08-23T08:18:00.109Z,97813.00
2023-08-23T08:20:27.306Z,97817.97
2023-08-23T08:22:54.163Z,97819.94
2023-08-23T08:25:21.416Z,97831.44
2023-08-23T08:27:48.845Z,97810.06
2023-08-23T08:30:16.187Z,97826.00
2023-08-23T08:32:43.047Z,97810.69
2023-08-23T08:35:10.434Z,97820.94
2023-08-23T08:37:38.209Z,97827.09
2023-08-23T08:40:05.558Z,97832.50
2023-08-23T08:42:33.183Z,97818.75
2023-08-23T08:45:00.394Z,97807.91
2023-08-23T08:47:27.334Z,97832.47
2023-08-23T08:49:54.168Z,97815.22
2023-08-23T08:52:22.053Z,97834.53
2023-08-23T08:54:49.795Z,97832.13
2023-08-23T08:57:16.644Z,97816.34
2023-08-23T08:59:45.102Z,97848.31
2023-08-23T09:02:15.854Z,97811.91
2023-08-23T09:04:47.533Z,97827.25
2023-08-23T09:07:14.683Z,97818.09
2023-08-23T09:09:42.798Z,97830.19
2023-08-23T09:12:09.607Z,97814.06
2023-08-23T09:14:36.337Z,97821.28
2023-08-23T09:17:03.294Z,97814.78
2023-08-23T09:19:30.010Z,97789.78
2023-08-23T09:21:56.928Z,97817.19
2023-08-23T09:24:23.607Z,97801.75
2023-08-23T09:26:50.410Z,97804.97
2023-08-23T09:29:20.002Z,97818.00
2023-08-23T09:31:46.750Z,97804.16
2023-08-23T09:34:15.812Z,97797.28
2023-08-23T09:36:43.109Z,97815.59
2023-08-23T09:39:11.367Z,97800.75
2023-08-23T09:41:55.330Z,97797.03
2023-08-23T09:44:27.629Z,97797.19
2023-08-23T09:46:55.235Z,97818.41
2023-08-23T09:49:24.089Z,97798.59
2023-08-23T09:51:54.101Z,97794.69
2023-08-23T09:54:43.579Z,97783.03
2023-08-23T09:57:20.154Z,97782.13
2023-08-23T09:59:47.599Z,97783.00
2023-08-23T10:02:17.596Z,97781.72
2023-08-23T10:04:44.599Z,97787.03
2023-08-23T11:12:34.142Z,97757.84
2023-08-23T11:15:01.080Z,97749.34
2023-08-23T11:17:27.782Z,97768.03
2023-08-23T11:19:54.747Z,97755.78
2023-08-23T11:22:21.533Z,97747.00
2023-08-23T11:24:48.297Z,97742.47
2023-08-23T11:27:15.174Z,97736.22
2023-08-23T11:29:43.758Z,97740.63
2023-08-23T11:32:13.276Z,97738.34
2023-08-23T11:34:40.326Z,97720.50
2023-08-23T11:37:10.932Z,97732.53
2023-08-23T11:39:37.700Z,97739.91
2023-08-23T11:42:04.653Z,97738.94
2023-08-23T11:44:31.777Z,97731.97
2023-08-23T11:46:59.504Z,97733.28
2023-08-23T11:49:26.914Z,97733.50
2023-08-23T11:51:55.010Z,97703.50
2023-08-23T11:54:23.388Z,97735.28
2023-08-23T11:56:50.181Z,97718.06
2023-08-23T11:59:17.101Z,97706.56
2023-08-23T12:01:44.641Z,97718.19
2023-08-23T12:04:12.828Z,97728.41
2023-08-23T12:06:42.984Z,97709.28
2023-08-23T12:09:11.864Z,97727.56
2023-08-23T12:11:38.948Z,97727.16
2023-08-23T12:14:07.635Z,97717.75
2023-08-23T12:16:35.415Z,97722.06
2023-08-23T12:19:02.567Z,97706.06
2023-08-23T12:21:32.172Z,97731.47
2023-08-23T12:23:58.882Z,97715.00
2023-08-23T12:26:25.637Z,97723.00
2023-08-23T12:28:52.739Z,97712.78
2023-08-23T12:31:20.553Z,97709.09
2023-08-23T12:33:47.827Z,97701.41
2023-08-23T12:36:15.856Z,97708.13
2023-08-23T12:38:43.015Z,97696.06
2023-08-23T12:41:09.911Z,97718.00
2023-08-23T12:43:36.613Z,97708.09
2023-08-23T12:46:03.626Z,97711.38
2023-08-23T12:48:30.362Z,97715.31
2023-08-23T12:50:57.188Z,97698.50
2023-08-23T12:53:23.920Z,97693.22
2023-08-23T12:55:54.604Z,97688.31
2023-08-23T12:58:22.296Z,97695.34
2023-08-23T13:00:49.212Z,97701.59
2023-08-23T13:03:16.057Z,97699.53
2023-08-23T13:05:42.773Z,97689.66
2023-08-23T13:08:09.450Z,97682.19
2023-08-23T13:10:36.152Z,97678.75
2023-08-23T13:13:02.928Z,97692.91
2023-08-23T13:15:29.693Z,97682.50
2023-08-23T13:17:57.239Z,97690.34
2023-08-23T13:20:25.909Z,97675.56
2023-08-23T13:22:53.324Z,97694.47
2023-08-23T13:25:20.082Z,97681.28
2023-08-23T13:27:47.032Z,97674.91
2023-08-23T13:30:13.993Z,97694.59
2023-08-23T13:32:40.681Z,97669.41
2023-08-23T13:35:07.677Z,97689.03
2023-08-23T13:37:35.882Z,97677.59
2023-08-23T13:40:06.116Z,97694.56
2023-08-23T13:42:33.537Z,97694.88
2023-08-23T13:45:00.215Z,97685.63
2023-08-23T13:47:26.882Z,97688.78
2023-08-23T13:49:53.632Z,97695.38
2023-08-23T13:52:20.289Z,97665.34
2023-08-23T13:54:46.927Z,97627.16
2023-08-23T13:57:14.181Z,97669.06
2023-08-23T13:59:41.105Z,97676.63
2023-08-23T14:02:07.955Z,97673.03
2023-08-23T14:04:38.036Z,97652.06
2023-08-23T14:07:05.986Z,97653.00
2023-08-23T14:09:33.271Z,97649.00
2023-08-23T14:11:59.897Z,97661.81
2023-08-23T14:14:27.181Z,97654.84
2023-08-23T14:16:56.713Z,97649.44
2023-08-23T14:19:25.330Z,97641.66
2023-08-23T14:21:51.993Z,97658.34
2023-08-23T14:24:18.734Z,97640.03
2023-08-23T14:26:45.469Z,97664.56
2023-08-23T14:29:12.340Z,97638.13
2023-08-23T14:31:39.306Z,97627.44
2023-08-23T14:34:06.180Z,97642.59
2023-08-23T14:36:32.795Z,97642.50
2023-08-23T14:39:00.823Z,97644.56
2023-08-23T14:41:27.710Z,97629.16
2023-08-23T14:43:54.347Z,97662.78
2023-08-23T14:46:21.185Z,97658.06
2023-08-23T14:48:47.956Z,97674.34
2023-08-23T14:51:14.534Z,97664.94
2023-08-23T14:53:43.276Z,97644.88
2023-08-23T14:56:10.035Z,97650.66
2023-08-23T14:58:36.660Z,97668.06
2023-08-23T15:01:03.568Z,97645.47
2023-08-23T15:03:30.324Z,97651.56
2023-08-23T15:05:57.143Z,97634.56
2023-08-23T15:08:25.560Z,97644.88
2023-08-23T15:10:56.466Z,97631.47
2023-08-23T15:13:23.370Z,97633.59
2023-08-23T15:16:03.443Z,97626.06
2023-08-23T15:18:30.230Z,97640.41
2023-08-23T15:20:57.011Z,97635.47
2023-08-23T15:23:23.956Z,97630.31
2023-08-23T15:25:51.342Z,97656.88
2023-08-23T15:28:18.090Z,97640.34
2023-08-23T15:30:44.738Z,97643.91
2023-08-23T15:33:11.474Z,97639.72
2023-08-23T15:35:38.212Z,97634.38
2023-08-23T15:38:05.146Z,97636.97
2023-08-23T15:40:31.836Z,97657.16
2023-08-23T15:42:58.431Z,97639.16
2023-08-23T15:45:25.118Z,97653.94
2023-08-23T15:47:54.563Z,97656.72
2023-08-23T15:50:23.109Z,97631.72
2023-08-23T15:52:49.665Z,97654.81
2023-08-23T15:55:16.254Z,97659.72
2023-08-23T15:57:43.021Z,97643.63
2023-08-23T16:00:11.087Z,97656.09
2023-08-23T16:02:40.836Z,97639.50
2023-08-23T16:05:07.617Z,97651.88
2023-08-23T16:07:34.355Z,97644.25
2023-08-23T16:10:02.170Z,97634.44
2023-08-23T16:12:28.972Z,97646.09
2023-08-23T16:14:55.652Z,97640.09
2023-08-23T16:17:22.355Z,97648.31
2023-08-23T16:19:49.220Z,97638.38
2023-08-23T16:22:15.841Z,97636.81
2023-08-23T16:24:43.254Z,97613.06
2023-08-23T16:27:09.983Z,97626.66
2023-08-23T16:29:36.731Z,97645.63
2023-08-23T16:32:03.486Z,97620.50
2023-08-23T16:34:30.402Z,97628.50
2023-08-23T16:36:57.124Z,97616.25
2023-08-23T16:39:23.791Z,97624.97
2023-08-23T16:41:52.619Z,97638.50
2023-08-23T16:44:20.456Z,97637.63
2023-08-23T16:46:47.774Z,97619.66
2023-08-23T16:49:14.478Z,97637.03
2023-08-23T16:51:41.336Z,97626.34
2023-08-23T16:54:08.023Z,97631.44
2023-08-23T16:56:35.811Z,97631.69
2023-08-23T16:59:02.660Z,97622.28
2023-08-23T17:01:29.404Z,97630.84
2023-08-23T17:03:56.161Z,97634.19
2023-08-23T17:06:22.799Z,97625.09
2023-08-23T17:08:49.956Z,97639.56
2023-08-23T17:11:16.872Z,97625.88
2023-08-23T17:13:43.626Z,97631.16
2023-08-23T17:16:10.559Z,97657.28
2023-08-23T17:18:37.353Z,97633.84
2023-08-23T17:21:04.062Z,97651.97
2023-08-23T17:23:31.212Z,97649.78
2023-08-23T17:25:58.143Z,97622.69
2023-08-23T17:28:24.915Z,97637.69
2023-08-23T17:30:52.563Z,97649.56
2023-08-23T17:33:21.326Z,97666.59
2023-08-23T17:35:48.456Z,97649.50
2023-08-23T17:38:15.403Z,97667.22
2023-08-23T17:40:42.108Z,97632.53
2023-08-23T17:43:09.449Z,97643.53
2023-08-23T17:45:36.519Z,97663.22
2023-08-23T17:48:04.119Z,97667.03
2023-08-23T17:50:30.893Z,97650.81
2023-08-23T17:52:59.592Z,97647.78
2023-08-23T17:55:26.501Z,97660.53
2023-08-23T17:57:53.187Z,97646.75
2023-08-23T18:00:20.920Z,97665.38
2023-08-23T18:02:47.844Z,97673.66
2023-08-23T18:05:14.821Z,97654.47
2023-08-23T18:07:41.553Z,97662.44
2023-08-23T18:10:09.432Z,97689.38
2023-08-23T18:12:36.432Z,97670.53
2023-08-23T18:15:04.238Z,97662.28
2023-08-23T18:17:30.950Z,97668.38
2023-08-23T18:19:58.633Z,97665.16
2023-08-23T18:22:25.303Z,97671.63
2023-08-23T18:24:52.084Z,97682.72
2023-08-23T18:27:18.718Z,97684.81
2023-08-23T18:29:45.343Z,97716.16
2023-08-23T18:32:13.052Z,97702.31
2023-08-23T18:37:22.989Z,97713.00
2023-08-23T18:39:49.686Z,97691.81
2023-08-23T18:42:18.929Z,97679.06
2023-08-23T18:45:13.655Z,97712.94
2023-08-23T18:48:30.761Z,97707.72
2023-08-23T18:54:18.459Z,97723.38
2023-08-23T18:55:09.799Z,97666.44
2023-08-23T19:10:25.122Z,97734.19
2023-08-23T19:12:51.993Z,97735.00
2023-08-23T19:15:27.941Z,97721.22
2023-08-23T19:17:54.701Z,97741.75
2023-08-23T19:24:38.988Z,97702.47
2023-08-23T19:27:05.776Z,97729.28
2023-08-23T19:29:32.438Z,97759.44
2023-08-23T19:32:04.688Z,97738.28
2023-08-23T19:34:41.353Z,97720.78
2023-08-23T19:37:38.939Z,97763.44
2023-08-23T19:45:28.801Z,97758.31
2023-08-23T19:52:22.903Z,97758.94
2023-08-23T20:02:14.909Z,97772.78
2023-08-23T20:04:41.847Z,97756.19
2023-08-23T20:07:08.645Z,97762.59
2023-08-23T20:09:35.341Z,97739.56
2023-08-23T20:12:02.022Z,97778.25
2023-08-23T20:18:53.128Z,97779.13
2023-08-23T20:21:19.862Z,97751.63
2023-08-23T20:31:16.281Z,97742.16
2023-08-23T20:38:09.174Z,97772.03
2023-08-23T20:49:44.322Z,97759.19
2023-08-23T20:56:32.590Z,97787.09
2023-08-23T20:58:59.947Z,97754.59
2023-08-23T21:05:14.306Z,97762.38
2023-08-23T21:07:41.030Z,97770.22
2023-08-23T21:10:08.003Z,97752.50
2023-08-23T21:12:35.414Z,97755.13
2023-08-23T21:15:02.201Z,97796.31
2023-08-23T21:20:10.125Z,97778.50
2023-08-23T21:22:36.746Z,97770.78
2023-08-23T21:33:29.538Z,97725.72
2023-08-23T21:36:46.825Z,97791.28
2023-08-23T21:39:16.343Z,97740.81
2023-08-23T21:41:42.986Z,97777.13
2023-08-23T21:44:09.674Z,97797.66
2023-08-23T21:46:36.390Z,97800.22
2023-08-23T21:49:05.563Z,97779.94
2023-08-23T21:51:42.358Z,97747.22
2023-08-23T21:54:23.638Z,97793.44
2023-08-23T22:03:37.735Z,97771.44
2023-08-23T22:06:07.311Z,97802.56
2023-08-23T22:08:35.626Z,97787.69
2023-08-23T22:11:03.324Z,97800.06
2023-08-23T22:13:30.014Z,97800.94
2023-08-23T22:15:56.907Z,97795.59
2023-08-23T22:18:24.927Z,97781.50
2023-08-23T22:20:54.815Z,97781.50
2023-08-23T22:23:23.040Z,97797.50
2023-08-23T22:25:50.066Z,97772.16
2023-08-23T22:28:16.965Z,97790.69
2023-08-23T22:30:43.799Z,97768.66
2023-08-23T22:33:10.620Z,97770.47
2023-08-23T22:35:38.375Z,97780.28
2023-08-23T22:38:06.655Z,97765.16
2023-08-23T22:40:36.940Z,97763.31
2023-08-23T22:43:03.994Z,97776.75
2023-08-23T22:45:31.775Z,97801.69
2023-08-23T22:48:01.012Z,97800.81
2023-08-23T22:50:28.459Z,97794.59
2023-08-23T22:53:02.859Z,97767.06
2023-08-23T22:55:31.453Z,97797.16
2023-08-23T22:57:58.349Z,97771.41
2023-08-23T23:03:33.384Z,97767.00
2023-08-23T23:07:05.863Z,97794.53
2023-08-23T23:13:33.243Z,97743.13
2023-08-23T23:16:05.618Z,97750.22
2023-08-23T23:18:36.987Z,97800.00
2023-08-23T23:21:09.247Z,97761.72
2023-08-23T23:23:43.430Z,97803.50
2023-08-23T23:26:13.754Z,97737.81
2023-08-23T23:28:46.720Z,97779.59
2023-08-23T23:31:19.369Z,97799.06
2023-08-23T23:33:46.244Z,97793.72
2023-08-23T23:36:25.871Z,97764.38
2023-08-23T23:39:00.619Z,97722.63
2023-08-23T23:41:30.564Z,97753.69
2023-08-23T23:44:07.676Z,97791.00
2023-08-23T23:46:36.788Z,97773.25
2023-08-23T23:49:03.493Z,97731.50
2023-08-23T23:51:35.789Z,97727.94
2023-08-23T23:54:04.650Z,97722.66
2023-08-23T23:59:50.902Z,97758.25
